createdAt,value
2022-08-25T00:00:15.180Z,22.30
2022-08-25T00:02:51.638Z,22.20
2022-08-25T00:05:29.451Z,22.20
2022-08-25T00:08:02.063Z,22.20
2022-08-25T00:10:29.488Z,22.00
2022-08-25T00:12:56.281Z,22.00
2022-08-25T00:15:23.144Z,22.00
2022-08-25T00:17:50.596Z,21.90
2022-08-25T00:20:17.913Z,22.00
2022-08-25T00:22:45.337Z,21.90
2022-08-25T00:25:12.786Z,21.90
2022-08-25T00:27:39.540Z,21.70
2022-08-25T00:30:07.192Z,21.80
2022-08-25T00:32:33.978Z,21.80
2022-08-25T00:35:00.973Z,21.70
2022-08-25T00:37:27.913Z,21.70
2022-08-25T00:39:57.049Z,21.70
2022-08-25T00:42:25.729Z,21.70
2022-08-25T00:44:53.015Z,21.70
2022-08-25T00:47:20.417Z,21.50
2022-08-25T00:49:51.790Z,21.50
2022-08-25T00:52:42.143Z,21.40
2022-08-25T00:55:18.710Z,21.40
2022-08-25T00:57:56.175Z,21.40
2022-08-25T01:00:28.601Z,21.30
2022-08-25T01:02:56.819Z,21.40
2022-08-25T01:05:24.769Z,21.30
2022-08-25T01:07:52.699Z,21.40
2022-08-25T01:10:26.997Z,21.30
2022-08-25T01:12:58.534Z,21.30
2022-08-25T01:15:25.362Z,21.20
2022-08-25T01:17:55.737Z,21.10
2022-08-25T01:20:29.366Z,21.10
2022-08-25T01:22:57.438Z,21.10
2022-08-25T01:25:47.812Z,21.10
2022-08-25T01:29:01.386Z,20.90
2022-08-25T01:31:47.418Z,20.80
2022-08-25T01:34:34.198Z,20.80
2022-08-25T01:37:01.419Z,20.80
2022-08-25T01:39:30.480Z,20.90
2022-08-25T01:42:03.133Z,20.80
2022-08-25T01:44:39.871Z,20.80
2022-08-25T01:48:02.881Z,20.90
2022-08-25T01:50:30.307Z,20.80
2022-08-25T01:56:19.291Z,20.70
2022-08-25T01:59:18.975Z,20.70
2022-08-25T02:01:51.913Z,20.80
2022-08-25T02:04:32.047Z,20.70
2022-08-25T02:07:04.234Z,20.50
2022-08-25T02:09:31.728Z,20.60
2022-08-25T02:11:59.255Z,20.60
2022-08-25T02:15:09.776Z,20.60
2022-08-25T02:17:37.401Z,20.50
2022-08-25T02:20:10.852Z,20.50
2022-08-25T02:22:37.639Z,20.50
2022-08-25T02:25:06.381Z,20.40
2022-08-25T02:27:33.468Z,20.40
2022-08-25T02:30:01.428Z,20.50
2022-08-25T02:32:28.261Z,20.50
2022-08-25T02:34:55.075Z,20.30
2022-08-25T02:37:21.822Z,20.30
2022-08-25T02:39:48.741Z,20.20
2022-08-25T02:42:15.580Z,20.20
2022-08-25T02:44:42.370Z,20.10
2022-08-25T02:47:09.177Z,20.00
2022-08-25T02:49:35.998Z,20.00
2022-08-25T02:52:03.132Z,20.00
2022-08-25T02:54:30.508Z,20.10
2022-08-25T02:56:57.279Z,20.00
2022-08-25T02:59:24.050Z,20.00
2022-08-25T03:01:50.792Z,20.00
2022-08-25T03:04:18.232Z,20.00
2022-08-25T03:06:46.204Z,19.80
2022-08-25T03:09:13.245Z,19.80
2022-08-25T03:11:40.472Z,19.80
2022-08-25T03:14:09.753Z,19.70
2022-08-25T03:16:37.182Z,19.60
2022-08-25T03:19:04.222Z,19.60
2022-08-25T03:21:32.877Z,19.70
2022-08-25T03:24:00.673Z,19.70
2022-08-25T03:26:46.321Z,19.50
2022-08-25T03:29:13.892Z,19.50
2022-08-25T03:31:43.871Z,19.50
2022-08-25T03:34:16.923Z,19.50
2022-08-25T03:36:45.103Z,19.50
2022-08-25T03:39:12.727Z,19.50
2022-08-25T03:41:39.594Z,19.30
2022-08-25T03:44:08.087Z,19.30
2022-08-25T03:46:38.885Z,19.30
2022-08-25T03:49:09.511Z,19.40
2022-08-25T03:51:40.470Z,19.40
2022-08-25T03:54:08.742Z,19.50
2022-08-25T03:56:35.860Z,19.30
2022-08-25T03:59:03.956Z,19.40
2022-08-25T04:01:30.872Z,19.40
2022-08-25T04:03:57.756Z,19.40
2022-08-25T04:06:24.584Z,19.40
2022-08-25T04:08:52.758Z,19.40
2022-08-25T04:11:21.821Z,19.50
2022-08-25T04:13:49.028Z,19.40
2022-08-25T04:16:22.938Z,19.40
2022-08-25T04:18:50.934Z,19.30
2022-08-25T04:21:18.704Z,19.40
2022-08-25T04:23:47.931Z,19.40
2022-08-25T04:26:20.455Z,19.40
2022-08-25T04:28:47.857Z,19.40
2022-08-25T04:31:16.532Z,19.50
2022-08-25T04:33:44.048Z,19.40
2022-08-25T04:36:12.549Z,19.40
2022-08-25T04:38:41.349Z,19.40
2022-08-25T04:41:10.681Z,19.50
2022-08-25T04:43:39.319Z,19.40
2022-08-25T04:46:08.521Z,19.50
2022-08-25T04:48:35.452Z,19.50
2022-08-25T04:51:07.617Z,19.50
2022-08-25T04:53:34.930Z,19.50
2022-08-25T04:56:04.039Z,19.60
2022-08-25T04:58:31.145Z,19.60
2022-08-25T05:01:10.314Z,19.70
2022-08-25T05:03:38.385Z,19.70
2022-08-25T05:06:06.158Z,19.80
2022-08-25T05:08:33.885Z,19.70
2022-08-25T05:11:06.226Z,19.80
2022-08-25T05:13:33.040Z,19.80
2022-08-25T05:16:00.961Z,19.90
2022-08-25T05:18:31.003Z,19.90
2022-08-25T05:21:02.793Z,19.90
2022-08-25T05:23:30.043Z,20.00
2022-08-25T05:26:01.578Z,20.10
2022-08-25T05:28:28.445Z,20.20
2022-08-25T05:30:59.333Z,20.10
2022-08-25T05:33:26.509Z,20.10
2022-08-25T05:35:57.864Z,20.30
2022-08-25T05:38:25.006Z,20.30
2022-08-25T05:41:03.016Z,20.30
2022-08-25T05:43:30.229Z,20.40
2022-08-25T05:45:58.392Z,20.50
2022-08-25T05:48:26.710Z,20.60
2022-08-25T05:50:55.003Z,20.60
2022-08-25T05:53:23.045Z,20.80
2022-08-25T05:55:51.871Z,20.80
2022-08-25T05:58:18.736Z,20.90
2022-08-25T06:00:45.691Z,21.00
2022-08-25T06:03:13.161Z,21.00
2022-08-25T06:05:41.094Z,21.00
2022-08-25T06:08:08.308Z,21.10
2022-08-25T06:10:35.425Z,21.20
2022-08-25T06:13:02.280Z,21.30
2022-08-25T06:15:29.101Z,21.30
2022-08-25T06:18:00.989Z,21.20
2022-08-25T06:20:30.924Z,21.50
2022-08-25T06:22:58.328Z,21.70
2022-08-25T06:25:26.573Z,21.60
2022-08-25T06:27:55.102Z,21.60
2022-08-25T06:30:28.498Z,21.80
2022-08-25T06:32:55.749Z,21.70
2022-08-25T06:35:22.855Z,21.70
2022-08-25T06:37:49.868Z,21.90
2022-08-25T06:40:17.373Z,22.00
2022-08-25T06:42:48.604Z,22.40
2022-08-25T06:45:15.761Z,22.30
2022-08-25T06:47:43.010Z,22.50
2022-08-25T06:50:12.661Z,22.70
2022-08-25T06:52:39.500Z,22.80
2022-08-25T06:55:06.815Z,22.80
2022-08-25T06:57:35.878Z,22.60
2022-08-25T07:00:05.991Z,23.20
2022-08-25T07:02:35.235Z,23.10
2022-08-25T07:05:02.968Z,23.10
2022-08-25T07:07:43.585Z,23.30
2022-08-25T07:10:11.422Z,23.50
2022-08-25T07:12:38.673Z,23.80
2022-08-25T07:15:21.307Z,24.10
2022-08-25T07:17:49.327Z,23.80
2022-08-25T07:20:19.226Z,23.80
2022-08-25T07:22:48.106Z,23.80
2022-08-25T07:25:14.941Z,23.90
2022-08-25T07:27:44.773Z,24.10
2022-08-25T07:30:11.649Z,24.20
2022-08-25T07:32:43.038Z,24.10
2022-08-25T07:35:18.828Z,24.10
2022-08-25T07:37:50.115Z,24.10
2022-08-25T07:40:26.316Z,24.60
2022-08-25T07:42:56.372Z,25.20
2022-08-25T07:45:30.421Z,24.80
2022-08-25T07:48:02.874Z,25.20
2022-08-25T07:50:31.317Z,25.30
2022-08-25T07:52:58.812Z,25.20
2022-08-25T07:55:27.739Z,25.40
2022-08-25T07:57:57.205Z,25.50
2022-08-25T08:00:27.857Z,26.60
2022-08-25T08:02:55.385Z,26.10
2022-08-25T08:05:23.841Z,26.90
2022-08-25T08:07:51.493Z,26.70
2022-08-25T08:13:07.697Z,26.20
2022-08-25T08:15:35.548Z,26.80
2022-08-25T08:18:05.233Z,27.00
2022-08-25T08:20:42.721Z,26.40
2022-08-25T08:23:11.138Z,26.70
2022-08-25T08:25:37.949Z,27.50
2022-08-25T08:28:04.775Z,27.80
2022-08-25T08:30:36.517Z,28.30
2022-08-25T08:33:10.184Z,28.70
2022-08-25T08:35:38.309Z,28.00
2022-08-25T08:38:13.513Z,28.00
2022-08-25T08:41:22.944Z,27.20
2022-08-25T08:44:00.679Z,27.50
2022-08-25T08:46:58.920Z,28.10
2022-08-25T08:49:46.555Z,28.70
2022-08-25T08:52:17.744Z,29.10
2022-08-25T08:54:47.060Z,29.30
2022-08-25T08:57:17.702Z,29.50
2022-08-25T08:59:51.867Z,29.00
2022-08-25T09:02:51.345Z,29.20
2022-08-25T09:05:20.641Z,29.50
2022-08-25T09:07:56.117Z,30.10
2022-08-25T09:10:26.197Z,30.00
2022-08-25T09:13:02.574Z,29.70
2022-08-25T09:16:20.667Z,30.50
2022-08-25T09:18:56.361Z,30.80
2022-08-25T09:21:50.826Z,31.50
2022-08-25T09:24:32.599Z,31.10
2022-08-25T09:27:21.259Z,31.50
2022-08-25T09:30:10.334Z,30.60
2022-08-25T09:33:05.263Z,30.00
2022-08-25T09:35:35.726Z,31.70
2022-08-25T09:38:05.727Z,31.50
2022-08-25T09:40:35.493Z,31.30
2022-08-25T09:43:09.346Z,31.90
2022-08-25T09:45:48.877Z,31.70
2022-08-25T09:48:42.706Z,31.90
2022-08-25T09:51:42.267Z,31.90
2022-08-25T09:54:15.786Z,32.10
2022-08-25T09:56:54.423Z,32.80
2022-08-25T09:59:30.833Z,33.40
2022-08-25T10:02:28.915Z,32.70
2022-08-25T10:04:57.108Z,33.20
2022-08-25T10:07:30.065Z,33.00
2022-08-25T10:10:01.618Z,32.60
2022-08-25T10:12:42.641Z,33.60
2022-08-25T10:15:29.671Z,33.60
2022-08-25T10:18:27.329Z,34.40
2022-08-25T10:21:02.564Z,33.40
